Terminal Aerodrome Forecast
Issued by NWS

Home | Current Version | Previous Version | Text Only | Print | Product List | Glossary On
Versions: 1 2 3 4 5 6 7 8 9 10 11 12 13 14 15 16 17
000
FTUS42 TJSJ 290100 AAA
TAFJPS
TAF AMD
TJPS 290124Z 2901/2924 09007KT P6SM VCSH FEW030 SCT060
      TEMPO 2901/2903 5SM SHRA BKN030
     FM291500 15010KT P6SM VCTS FEW030 SCT060CB
     FM292330 09007KT P6SM FEW030 SCT060
      AMD NOT SKED TIL 290300=

USA.gov is the U.S. government's official web portal to all federal, state and local government web resources and services.